sensor_id;sensor_type;location;lat;lon;timestamp;P1;durP1;ratioP1;P2;durP2;ratioP2
6763;SDS011;47432;48.760;9.178;2023-03-12T00:01:17;9.90;;;3.20;;
6763;SDS011;47432;48.760;9.178;2023-03-12T00:03:47;10.77;;;3.07;;
6763;SDS011;47432;48.760;9.178;2023-03-12T00:06:14;8.00;;;2.50;;
6763;SDS011;47432;48.760;9.178;2023-03-12T00:08:41;10.23;;;3.40;;
6763;SDS011;47432;48.760;9.178;2023-03-12T00:11:12;14.53;;;3.17;;
6763;SDS011;47432;48.760;9.178;2023-03-12T00:13:40;8.97;;;3.00;;
6763;SDS011;47432;48.760;9.178;2023-03-12T00:16:08;9.87;;;3.00;;
6763;SDS011;47432;48.760;9.178;2023-03-12T00:18:39;10.70;;;3.53;;
6763;SDS011;47432;48.760;9.178;2023-03-12T00:21:05;10.70;;;3.40;;
6763;SDS011;47432;48.760;9.178;2023-03-12T00:23:32;10.73;;;3.10;;
6763;SDS011;47432;48.760;9.178;2023-03-12T00:26:00;7.37;;;2.63;;
6763;SDS011;47432;48.760;9.178;2023-03-12T00:28:29;9.43;;;3.83;;
6763;SDS011;47432;48.760;9.178;2023-03-12T00:30:58;11.90;;;3.80;;
6763;SDS011;47432;48.760;9.178;2023-03-12T00:33:27;8.70;;;3.30;;
6763;SDS011;47432;48.760;9.178;2023-03-12T00:35:54;8.80;;;2.83;;
6763;SDS011;47432;48.760;9.178;2023-03-12T00:38:21;13.60;;;4.10;;
6763;SDS011;47432;48.760;9.178;2023-03-12T00:40:47;10.40;;;3.30;;
6763;SDS011;47432;48.760;9.178;2023-03-12T00:43:13;8.30;;;3.40;;
6763;SDS011;47432;48.760;9.178;2023-03-12T00:45:39;9.20;;;3.77;;
6763;SDS011;47432;48.760;9.178;2023-03-12T00:48:05;12.70;;;4.87;;
6763;SDS011;47432;48.760;9.178;2023-03-12T00:50:31;8.43;;;2.90;;
6763;SDS011;47432;48.760;9.178;2023-03-12T00:52:57;9.90;;;3.23;;
6763;SDS011;47432;48.760;9.178;2023-03-12T00:55:23;9.50;;;3.00;;
6763;SDS011;47432;48.760;9.178;2023-03-12T00:57:49;11.43;;;3.73;;
6763;SDS011;47432;48.760;9.178;2023-03-12T01:00:15;13.73;;;3.30;;
6763;SDS011;47432;48.760;9.178;2023-03-12T01:02:44;11.00;;;3.90;;
6763;SDS011;47432;48.760;9.178;2023-03-12T01:05:12;10.57;;;3.80;;
6763;SDS011;47432;48.760;9.178;2023-03-12T01:07:38;9.07;;;2.87;;
6763;SDS011;47432;48.760;9.178;2023-03-12T01:10:05;10.67;;;3.60;;
6763;SDS011;47432;48.760;9.178;2023-03-12T01:12:33;10.83;;;3.60;;
6763;SDS011;47432;48.760;9.178;2023-03-12T01:14:58;11.20;;;4.20;;
6763;SDS011;47432;48.760;9.178;2023-03-12T01:17:25;18.63;;;4.97;;
6763;SDS011;47432;48.760;9.178;2023-03-12T01:19:50;13.33;;;3.40;;
6763;SDS011;47432;48.760;9.178;2023-03-12T01:22:16;18.10;;;4.20;;
6763;SDS011;47432;48.760;9.178;2023-03-12T01:24:43;10.07;;;3.43;;
6763;SDS011;47432;48.760;9.178;2023-03-12T01:27:09;9.37;;;3.83;;
6763;SDS011;47432;48.760;9.178;2023-03-12T01:29:34;11.93;;;3.30;;
6763;SDS011;47432;48.760;9.178;2023-03-12T01:32:00;9.83;;;2.67;;
6763;SDS011;47432;48.760;9.178;2023-03-12T01:34:26;8.60;;;2.50;;
6763;SDS011;47432;48.760;9.178;2023-03-12T01:36:54;12.50;;;3.50;;
6763;SDS011;47432;48.760;9.178;2023-03-12T01:39:22;8.60;;;2.80;;
6763;SDS011;47432;48.760;9.178;2023-03-12T01:41:50;14.43;;;2.87;;
6763;SDS011;47432;48.760;9.178;2023-03-12T01:44:15;10.70;;;2.90;;
6763;SDS011;47432;48.760;9.178;2023-03-12T01:46:42;9.40;;;3.30;;
6763;SDS011;47432;48.760;9.178;2023-03-12T01:55:05;9.33;;;3.10;;
6763;SDS011;47432;48.760;9.178;2023-03-12T01:57:41;9.13;;;3.63;;
6763;SDS011;47432;48.760;9.178;2023-03-12T02:00:22;9.90;;;3.47;;
6763;SDS011;47432;48.760;9.178;2023-03-12T02:02:53;15.03;;;4.40;;
6763;SDS011;47432;48.760;9.178;2023-03-12T02:05:27;9.40;;;3.30;;
6763;SDS011;47432;48.760;9.178;2023-03-12T02:08:12;10.30;;;4.50;;
6763;SDS011;47432;48.760;9.178;2023-03-12T02:10:41;11.57;;;3.50;;
6763;SDS011;47432;48.760;9.178;2023-03-12T02:13:06;8.90;;;3.30;;
6763;SDS011;47432;48.760;9.178;2023-03-12T02:15:33;9.57;;;3.70;;
6763;SDS011;47432;48.760;9.178;2023-03-12T02:18:03;11.30;;;3.83;;
6763;SDS011;47432;48.760;9.178;2023-03-12T02:20:44;10.80;;;4.20;;
6763;SDS011;47432;48.760;9.178;2023-03-12T02:23:51;9.93;;;3.60;;
6763;SDS011;47432;48.760;9.178;2023-03-12T02:26:39;11.27;;;3.50;;
6763;SDS011;47432;48.760;9.178;2023-03-12T02:29:05;11.13;;;4.07;;
6763;SDS011;47432;48.760;9.178;2023-03-12T02:31:36;10.07;;;4.00;;
6763;SDS011;47432;48.760;9.178;2023-03-12T02:34:07;11.07;;;3.63;;
6763;SDS011;47432;48.760;9.178;2023-03-12T02:36:36;14.77;;;4.10;;
6763;SDS011;47432;48.760;9.178;2023-03-12T02:39:02;13.10;;;3.40;;
6763;SDS011;47432;48.760;9.178;2023-03-12T02:41:37;15.23;;;3.80;;
6763;SDS011;47432;48.760;9.178;2023-03-12T02:44:09;11.47;;;3.90;;
6763;SDS011;47432;48.760;9.178;2023-03-12T02:46:58;11.00;;;3.60;;
6763;SDS011;47432;48.760;9.178;2023-03-12T02:49:30;13.57;;;4.47;;
6763;SDS011;47432;48.760;9.178;2023-03-12T02:51:59;12.60;;;3.60;;
6763;SDS011;47432;48.760;9.178;2023-03-12T02:54:26;10.73;;;3.67;;
6763;SDS011;47432;48.760;9.178;2023-03-12T02:56:54;9.93;;;3.60;;
6763;SDS011;47432;48.760;9.178;2023-03-12T02:59:20;13.23;;;4.00;;
6763;SDS011;47432;48.760;9.178;2023-03-12T03:01:54;11.13;;;4.30;;
6763;SDS011;47432;48.760;9.178;2023-03-12T03:04:22;12.30;;;4.63;;
6763;SDS011;47432;48.760;9.178;2023-03-12T03:06:49;9.03;;;3.50;;
6763;SDS011;47432;48.760;9.178;2023-03-12T03:09:17;10.40;;;4.60;;
6763;SDS011;47432;48.760;9.178;2023-03-12T03:11:45;13.97;;;4.97;;
6763;SDS011;47432;48.760;9.178;2023-03-12T03:14:12;9.60;;;3.17;;
6763;SDS011;47432;48.760;9.178;2023-03-12T03:16:38;12.57;;;4.50;;
6763;SDS011;47432;48.760;9.178;2023-03-12T03:19:04;10.10;;;4.17;;
6763;SDS011;47432;48.760;9.178;2023-03-12T03:21:31;13.00;;;4.40;;
6763;SDS011;47432;48.760;9.178;2023-03-12T03:23:57;12.40;;;4.27;;
6763;SDS011;47432;48.760;9.178;2023-03-12T03:26:23;10.87;;;5.00;;
6763;SDS011;47432;48.760;9.178;2023-03-12T03:28:49;10.93;;;4.50;;
6763;SDS011;47432;48.760;9.178;2023-03-12T03:31:15;11.63;;;4.47;;
6763;SDS011;47432;48.760;9.178;2023-03-12T03:33:41;11.87;;;4.60;;
6763;SDS011;47432;48.760;9.178;2023-03-12T03:36:08;12.03;;;4.67;;
6763;SDS011;47432;48.760;9.178;2023-03-12T03:38:37;10.80;;;4.87;;
6763;SDS011;47432;48.760;9.178;2023-03-12T03:41:03;10.73;;;4.00;;
6763;SDS011;47432;48.760;9.178;2023-03-12T03:43:31;9.50;;;3.70;;
6763;SDS011;47432;48.760;9.178;2023-03-12T03:45:58;11.20;;;5.13;;
6763;SDS011;47432;48.760;9.178;2023-03-12T03:48:29;9.80;;;3.80;;
6763;SDS011;47432;48.760;9.178;2023-03-12T03:50:58;12.70;;;4.87;;
6763;SDS011;47432;48.760;9.178;2023-03-12T03:53:26;15.10;;;5.40;;
6763;SDS011;47432;48.760;9.178;2023-03-12T03:55:54;12.03;;;4.20;;
6763;SDS011;47432;48.760;9.178;2023-03-12T03:58:20;12.70;;;4.30;;
6763;SDS011;47432;48.760;9.178;2023-03-12T04:00:46;14.23;;;4.97;;
6763;SDS011;47432;48.760;9.178;2023-03-12T04:03:12;11.43;;;4.20;;
6763;SDS011;47432;48.760;9.178;2023-03-12T04:05:38;12.27;;;4.93;;
6763;SDS011;47432;48.760;9.178;2023-03-12T04:08:09;11.03;;;4.10;;
6763;SDS011;47432;48.760;9.178;2023-03-12T04:10:36;11.63;;;4.60;;
6763;SDS011;47432;48.760;9.178;2023-03-12T04:13:02;10.10;;;4.20;;
6763;SDS011;47432;48.760;9.178;2023-03-12T04:15:28;10.97;;;4.63;;
6763;SDS011;47432;48.760;9.178;2023-03-12T04:17:54;15.87;;;5.00;;
6763;SDS011;47432;48.760;9.178;2023-03-12T04:20:20;10.30;;;4.60;;
6763;SDS011;47432;48.760;9.178;2023-03-12T04:22:46;10.90;;;4.50;;
6763;SDS011;47432;48.760;9.178;2023-03-12T04:25:12;11.37;;;4.67;;
6763;SDS011;47432;48.760;9.178;2023-03-12T04:27:38;15.03;;;5.77;;
6763;SDS011;47432;48.760;9.178;2023-03-12T04:30:04;11.57;;;4.73;;
6763;SDS011;47432;48.760;9.178;2023-03-12T04:32:30;11.60;;;4.40;;
6763;SDS011;47432;48.760;9.178;2023-03-12T04:34:57;11.97;;;4.50;;
6763;SDS011;47432;48.760;9.178;2023-03-12T04:37:23;11.57;;;4.40;;
6763;SDS011;47432;48.760;9.178;2023-03-12T04:39:49;14.93;;;4.37;;
6763;SDS011;47432;48.760;9.178;2023-03-12T04:42:15;11.90;;;4.20;;
6763;SDS011;47432;48.760;9.178;2023-03-12T04:44:41;14.43;;;5.33;;
6763;SDS011;47432;48.760;9.178;2023-03-12T04:47:07;9.00;;;3.67;;
6763;SDS011;47432;48.760;9.178;2023-03-12T04:49:32;11.20;;;4.63;;
6763;SDS011;47432;48.760;9.178;2023-03-12T04:51:58;14.03;;;4.63;;
6763;SDS011;47432;48.760;9.178;2023-03-12T04:54:24;13.90;;;4.57;;
6763;SDS011;47432;48.760;9.178;2023-03-12T04:56:50;10.23;;;4.17;;
6763;SDS011;47432;48.760;9.178;2023-03-12T04:59:16;11.97;;;4.50;;
6763;SDS011;47432;48.760;9.178;2023-03-12T05:01:42;13.20;;;4.40;;
6763;SDS011;47432;48.760;9.178;2023-03-12T05:04:08;10.67;;;4.20;;
6763;SDS011;47432;48.760;9.178;2023-03-12T05:06:34;16.23;;;4.87;;
6763;SDS011;47432;48.760;9.178;2023-03-12T05:09:00;9.40;;;3.93;;
6763;SDS011;47432;48.760;9.178;2023-03-12T05:11:27;10.83;;;4.40;;
6763;SDS011;47432;48.760;9.178;2023-03-12T05:13:54;13.07;;;4.20;;
6763;SDS011;47432;48.760;9.178;2023-03-12T05:16:20;14.73;;;4.53;;
6763;SDS011;47432;48.760;9.178;2023-03-12T05:18:47;12.13;;;4.23;;
6763;SDS011;47432;48.760;9.178;2023-03-12T05:21:14;10.67;;;3.87;;
6763;SDS011;47432;48.760;9.178;2023-03-12T05:23:43;10.60;;;4.27;;
6763;SDS011;47432;48.760;9.178;2023-03-12T05:26:19;11.27;;;3.83;;
6763;SDS011;47432;48.760;9.178;2023-03-12T05:28:49;10.70;;;4.40;;
6763;SDS011;47432;48.760;9.178;2023-03-12T05:31:15;14.50;;;4.40;;
6763;SDS011;47432;48.760;9.178;2023-03-12T05:33:42;11.47;;;4.20;;
6763;SDS011;47432;48.760;9.178;2023-03-12T05:36:08;10.90;;;4.03;;
6763;SDS011;47432;48.760;9.178;2023-03-12T05:38:34;14.23;;;4.60;;
6763;SDS011;47432;48.760;9.178;2023-03-12T05:41:01;10.40;;;5.10;;
6763;SDS011;47432;48.760;9.178;2023-03-12T05:43:28;9.40;;;4.20;;
6763;SDS011;47432;48.760;9.178;2023-03-12T05:45:58;10.40;;;4.33;;
6763;SDS011;47432;48.760;9.178;2023-03-12T05:48:26;10.37;;;4.20;;
6763;SDS011;47432;48.760;9.178;2023-03-12T05:50:52;9.93;;;3.77;;
6763;SDS011;47432;48.760;9.178;2023-03-12T05:53:17;12.37;;;4.33;;
6763;SDS011;47432;48.760;9.178;2023-03-12T05:55:46;15.80;;;4.13;;
6763;SDS011;47432;48.760;9.178;2023-03-12T05:58:12;15.67;;;4.30;;
6763;SDS011;47432;48.760;9.178;2023-03-12T06:00:39;11.63;;;4.97;;
6763;SDS011;47432;48.760;9.178;2023-03-12T06:03:08;12.77;;;5.03;;
6763;SDS011;47432;48.760;9.178;2023-03-12T06:05:34;12.30;;;4.90;;
6763;SDS011;47432;48.760;9.178;2023-03-12T06:08:01;11.50;;;4.97;;
6763;SDS011;47432;48.760;9.178;2023-03-12T06:10:28;11.47;;;4.90;;
6763;SDS011;47432;48.760;9.178;2023-03-12T06:12:54;11.10;;;4.80;;
6763;SDS011;47432;48.760;9.178;2023-03-12T06:15:21;11.10;;;4.70;;
6763;SDS011;47432;48.760;9.178;2023-03-12T06:17:47;11.80;;;5.30;;
6763;SDS011;47432;48.760;9.178;2023-03-12T06:20:13;10.90;;;4.80;;
6763;SDS011;47432;48.760;9.178;2023-03-12T06:22:39;11.07;;;5.43;;
6763;SDS011;47432;48.760;9.178;2023-03-12T06:25:05;10.90;;;5.00;;
6763;SDS011;47432;48.760;9.178;2023-03-12T06:27:31;14.80;;;5.70;;
6763;SDS011;47432;48.760;9.178;2023-03-12T06:29:57;10.70;;;4.87;;
6763;SDS011;47432;48.760;9.178;2023-03-12T06:32:23;12.20;;;5.30;;
6763;SDS011;47432;48.760;9.178;2023-03-12T06:34:50;10.93;;;5.40;;
6763;SDS011;47432;48.760;9.178;2023-03-12T06:37:16;13.17;;;5.27;;
6763;SDS011;47432;48.760;9.178;2023-03-12T06:39:41;11.10;;;5.30;;
6763;SDS011;47432;48.760;9.178;2023-03-12T06:42:07;11.03;;;4.73;;
6763;SDS011;47432;48.760;9.178;2023-03-12T06:44:33;13.70;;;4.43;;
6763;SDS011;47432;48.760;9.178;2023-03-12T06:46:59;12.50;;;5.00;;
6763;SDS011;47432;48.760;9.178;2023-03-12T06:49:25;13.17;;;4.33;;
6763;SDS011;47432;48.760;9.178;2023-03-12T06:51:56;13.47;;;4.57;;
6763;SDS011;47432;48.760;9.178;2023-03-12T06:54:22;11.83;;;4.03;;
6763;SDS011;47432;48.760;9.178;2023-03-12T06:56:48;12.10;;;4.23;;
6763;SDS011;47432;48.760;9.178;2023-03-12T06:59:14;12.97;;;4.20;;
6763;SDS011;47432;48.760;9.178;2023-03-12T07:01:42;13.30;;;4.60;;
6763;SDS011;47432;48.760;9.178;2023-03-12T07:04:08;13.60;;;4.50;;
6763;SDS011;47432;48.760;9.178;2023-03-12T07:06:34;13.17;;;4.80;;
6763;SDS011;47432;48.760;9.178;2023-03-12T07:09:00;11.13;;;4.23;;
6763;SDS011;47432;48.760;9.178;2023-03-12T07:11:28;10.37;;;3.90;;
6763;SDS011;47432;48.760;9.178;2023-03-12T07:13:54;11.90;;;4.90;;
6763;SDS011;47432;48.760;9.178;2023-03-12T07:16:21;12.63;;;4.97;;
6763;SDS011;47432;48.760;9.178;2023-03-12T07:18:47;13.23;;;4.27;;
6763;SDS011;47432;48.760;9.178;2023-03-12T07:21:13;10.90;;;4.70;;
6763;SDS011;47432;48.760;9.178;2023-03-12T07:23:46;18.30;;;5.90;;
6763;SDS011;47432;48.760;9.178;2023-03-12T07:26:15;12.33;;;4.60;;
6763;SDS011;47432;48.760;9.178;2023-03-12T07:28:44;12.87;;;4.90;;
6763;SDS011;47432;48.760;9.178;2023-03-12T07:31:10;15.60;;;5.83;;
6763;SDS011;47432;48.760;9.178;2023-03-12T07:33:36;13.30;;;5.50;;
6763;SDS011;47432;48.760;9.178;2023-03-12T07:36:02;12.27;;;5.10;;
6763;SDS011;47432;48.760;9.178;2023-03-12T07:38:28;21.23;;;5.90;;
6763;SDS011;47432;48.760;9.178;2023-03-12T07:40:56;13.57;;;5.23;;
6763;SDS011;47432;48.760;9.178;2023-03-12T07:43:22;13.10;;;5.00;;
6763;SDS011;47432;48.760;9.178;2023-03-12T07:45:49;12.70;;;4.93;;
6763;SDS011;47432;48.760;9.178;2023-03-12T07:48:15;14.37;;;5.37;;
6763;SDS011;47432;48.760;9.178;2023-03-12T07:50:43;13.20;;;5.50;;
6763;SDS011;47432;48.760;9.178;2023-03-12T07:53:09;12.47;;;5.67;;
6763;SDS011;47432;48.760;9.178;2023-03-12T07:55:36;13.97;;;6.30;;
6763;SDS011;47432;48.760;9.178;2023-03-12T07:58:02;12.93;;;5.20;;
6763;SDS011;47432;48.760;9.178;2023-03-12T08:00:29;12.93;;;5.73;;
6763;SDS011;47432;48.760;9.178;2023-03-12T08:02:55;13.03;;;5.60;;
6763;SDS011;47432;48.760;9.178;2023-03-12T08:05:22;12.43;;;5.00;;
6763;SDS011;47432;48.760;9.178;2023-03-12T08:07:52;14.30;;;5.90;;
6763;SDS011;47432;48.760;9.178;2023-03-12T08:10:18;12.67;;;5.60;;
6763;SDS011;47432;48.760;9.178;2023-03-12T08:12:45;12.93;;;5.80;;
6763;SDS011;47432;48.760;9.178;2023-03-12T08:15:11;12.17;;;5.23;;
6763;SDS011;47432;48.760;9.178;2023-03-12T08:17:37;12.67;;;5.80;;
6763;SDS011;47432;48.760;9.178;2023-03-12T08:20:04;15.20;;;6.00;;
6763;SDS011;47432;48.760;9.178;2023-03-12T08:22:33;11.03;;;4.93;;
6763;SDS011;47432;48.760;9.178;2023-03-12T08:25:01;11.37;;;5.33;;
6763;SDS011;47432;48.760;9.178;2023-03-12T08:27:27;12.07;;;5.53;;
6763;SDS011;47432;48.760;9.178;2023-03-12T08:29:54;11.73;;;4.97;;
6763;SDS011;47432;48.760;9.178;2023-03-12T08:32:20;13.13;;;6.43;;
6763;SDS011;47432;48.760;9.178;2023-03-12T08:34:48;11.10;;;5.10;;
6763;SDS011;47432;48.760;9.178;2023-03-12T08:37:14;10.23;;;4.53;;
6763;SDS011;47432;48.760;9.178;2023-03-12T08:39:40;15.40;;;6.10;;
6763;SDS011;47432;48.760;9.178;2023-03-12T08:42:06;12.87;;;5.67;;
6763;SDS011;47432;48.760;9.178;2023-03-12T08:44:32;11.50;;;5.30;;
6763;SDS011;47432;48.760;9.178;2023-03-12T08:46:59;11.53;;;5.83;;
6763;SDS011;47432;48.760;9.178;2023-03-12T08:49:25;14.40;;;6.10;;
6763;SDS011;47432;48.760;9.178;2023-03-12T08:51:53;13.27;;;6.90;;
6763;SDS011;47432;48.760;9.178;2023-03-12T08:54:19;13.90;;;6.13;;
6763;SDS011;47432;48.760;9.178;2023-03-12T08:56:51;12.50;;;6.37;;
6763;SDS011;47432;48.760;9.178;2023-03-12T08:59:17;12.13;;;5.20;;
6763;SDS011;47432;48.760;9.178;2023-03-12T09:01:44;12.50;;;6.40;;
6763;SDS011;47432;48.760;9.178;2023-03-12T09:04:10;12.00;;;5.27;;
6763;SDS011;47432;48.760;9.178;2023-03-12T09:06:36;12.63;;;5.63;;
6763;SDS011;47432;48.760;9.178;2023-03-12T09:09:02;12.70;;;4.93;;
6763;SDS011;47432;48.760;9.178;2023-03-12T09:11:29;11.67;;;5.07;;
6763;SDS011;47432;48.760;9.178;2023-03-12T09:13:57;14.87;;;6.87;;
6763;SDS011;47432;48.760;9.178;2023-03-12T09:16:23;12.87;;;6.10;;
6763;SDS011;47432;48.760;9.178;2023-03-12T09:18:49;13.40;;;5.47;;
6763;SDS011;47432;48.760;9.178;2023-03-12T09:21:14;13.50;;;5.90;;
6763;SDS011;47432;48.760;9.178;2023-03-12T09:23:40;12.40;;;6.20;;
6763;SDS011;47432;48.760;9.178;2023-03-12T09:26:10;11.97;;;5.30;;
6763;SDS011;47432;48.760;9.178;2023-03-12T09:28:36;13.00;;;5.37;;
6763;SDS011;47432;48.760;9.178;2023-03-12T09:31:02;12.83;;;5.60;;
6763;SDS011;47432;48.760;9.178;2023-03-12T09:33:29;10.60;;;4.60;;
6763;SDS011;47432;48.760;9.178;2023-03-12T09:35:58;12.13;;;5.10;;
6763;SDS011;47432;48.760;9.178;2023-03-12T09:38:24;11.77;;;5.07;;
6763;SDS011;47432;48.760;9.178;2023-03-12T09:40:51;11.60;;;4.47;;
6763;SDS011;47432;48.760;9.178;2023-03-12T09:43:37;12.13;;;4.57;;
6763;SDS011;47432;48.760;9.178;2023-03-12T09:46:13;15.17;;;4.73;;
6763;SDS011;47432;48.760;9.178;2023-03-12T09:48:46;10.03;;;3.77;;
6763;SDS011;47432;48.760;9.178;2023-03-12T09:51:23;11.43;;;4.40;;
6763;SDS011;47432;48.760;9.178;2023-03-12T09:54:02;11.93;;;3.93;;
6763;SDS011;47432;48.760;9.178;2023-03-12T09:56:32;11.07;;;4.80;;
6763;SDS011;47432;48.760;9.178;2023-03-12T09:58:58;12.70;;;5.53;;
6763;SDS011;47432;48.760;9.178;2023-03-12T10:01:34;10.10;;;4.30;;
6763;SDS011;47432;48.760;9.178;2023-03-12T10:07:14;9.63;;;3.90;;
6763;SDS011;47432;48.760;9.178;2023-03-12T10:12:50;9.90;;;3.80;;
6763;SDS011;47432;48.760;9.178;2023-03-12T10:18:37;7.63;;;2.20;;
6763;SDS011;47432;48.760;9.178;2023-03-12T10:21:58;7.50;;;2.43;;
6763;SDS011;47432;48.760;9.178;2023-03-12T10:27:14;7.60;;;2.10;;
6763;SDS011;47432;48.760;9.178;2023-03-12T10:29:42;7.57;;;2.07;;
6763;SDS011;47432;48.760;9.178;2023-03-12T10:32:14;6.60;;;1.43;;
6763;SDS011;47432;48.760;9.178;2023-03-12T10:34:53;8.43;;;1.70;;
6763;SDS011;47432;48.760;9.178;2023-03-12T10:37:24;6.47;;;1.30;;
6763;SDS011;47432;48.760;9.178;2023-03-12T10:39:54;7.30;;;1.70;;
6763;SDS011;47432;48.760;9.178;2023-03-12T10:42:26;8.03;;;1.90;;
6763;SDS011;47432;48.760;9.178;2023-03-12T10:44:55;6.87;;;1.50;;
6763;SDS011;47432;48.760;9.178;2023-03-12T10:47:36;7.40;;;1.50;;
6763;SDS011;47432;48.760;9.178;2023-03-12T10:50:17;6.50;;;1.40;;
6763;SDS011;47432;48.760;9.178;2023-03-12T10:52:52;7.57;;;2.07;;
6763;SDS011;47432;48.760;9.178;2023-03-12T10:55:56;6.50;;;1.40;;
6763;SDS011;47432;48.760;9.178;2023-03-12T10:58:55;8.30;;;2.17;;
6763;SDS011;47432;48.760;9.178;2023-03-12T11:01:21;9.80;;;1.87;;
6763;SDS011;47432;48.760;9.178;2023-03-12T11:03:50;7.43;;;2.17;;
6763;SDS011;47432;48.760;9.178;2023-03-12T11:06:27;7.90;;;1.80;;
6763;SDS011;47432;48.760;9.178;2023-03-12T11:09:05;7.20;;;1.80;;
6763;SDS011;47432;48.760;9.178;2023-03-12T11:11:41;8.03;;;1.63;;
6763;SDS011;47432;48.760;9.178;2023-03-12T11:14:16;8.17;;;1.87;;
6763;SDS011;47432;48.760;9.178;2023-03-12T11:16:51;7.87;;;2.07;;
6763;SDS011;47432;48.760;9.178;2023-03-12T11:19:32;8.53;;;1.90;;
6763;SDS011;47432;48.760;9.178;2023-03-12T11:22:00;7.20;;;1.50;;
6763;SDS011;47432;48.760;9.178;2023-03-12T11:24:31;7.60;;;2.00;;
6763;SDS011;47432;48.760;9.178;2023-03-12T11:29:54;8.77;;;2.50;;
6763;SDS011;47432;48.760;9.178;2023-03-12T11:32:25;7.07;;;1.27;;
6763;SDS011;47432;48.760;9.178;2023-03-12T11:34:59;7.33;;;1.83;;
6763;SDS011;47432;48.760;9.178;2023-03-12T11:37:43;7.20;;;1.10;;
6763;SDS011;47432;48.760;9.178;2023-03-12T11:46:51;6.07;;;0.80;;
6763;SDS011;47432;48.760;9.178;2023-03-12T11:49:53;9.17;;;0.83;;
6763;SDS011;47432;48.760;9.178;2023-03-12T11:52:53;7.30;;;0.80;;
6763;SDS011;47432;48.760;9.178;2023-03-12T12:04:38;6.30;;;0.90;;
6763;SDS011;47432;48.760;9.178;2023-03-12T12:07:47;7.13;;;1.00;;
6763;SDS011;47432;48.760;9.178;2023-03-12T12:13:51;7.03;;;1.43;;
6763;SDS011;47432;48.760;9.178;2023-03-12T12:19:49;5.87;;;0.70;;
6763;SDS011;47432;48.760;9.178;2023-03-12T12:25:45;6.63;;;1.10;;
6763;SDS011;47432;48.760;9.178;2023-03-12T12:28:38;7.30;;;1.10;;
6763;SDS011;47432;48.760;9.178;2023-03-12T12:34:23;6.40;;;1.23;;
6763;SDS011;47432;48.760;9.178;2023-03-12T12:43:21;8.23;;;1.17;;
6763;SDS011;47432;48.760;9.178;2023-03-12T12:46:08;8.93;;;1.40;;
6763;SDS011;47432;48.760;9.178;2023-03-12T12:48:41;8.97;;;1.73;;
6763;SDS011;47432;48.760;9.178;2023-03-12T12:51:13;8.67;;;1.50;;
6763;SDS011;47432;48.760;9.178;2023-03-12T12:53:54;7.40;;;1.13;;
6763;SDS011;47432;48.760;9.178;2023-03-12T13:01:49;8.53;;;1.37;;
6763;SDS011;47432;48.760;9.178;2023-03-12T13:04:22;9.47;;;1.37;;
6763;SDS011;47432;48.760;9.178;2023-03-12T13:07:03;7.00;;;1.27;;
6763;SDS011;47432;48.760;9.178;2023-03-12T13:09:45;7.87;;;1.10;;
6763;SDS011;47432;48.760;9.178;2023-03-12T13:15:00;8.43;;;1.30;;
6763;SDS011;47432;48.760;9.178;2023-03-12T13:23:42;7.90;;;1.37;;
6763;SDS011;47432;48.760;9.178;2023-03-12T13:32:02;9.63;;;1.90;;
6763;SDS011;47432;48.760;9.178;2023-03-12T13:34:43;9.47;;;1.40;;
6763;SDS011;47432;48.760;9.178;2023-03-12T13:37:17;8.00;;;1.40;;
6763;SDS011;47432;48.760;9.178;2023-03-12T13:40:33;8.37;;;1.30;;
6763;SDS011;47432;48.760;9.178;2023-03-12T13:49:02;7.20;;;1.30;;
6763;SDS011;47432;48.760;9.178;2023-03-12T13:51:41;8.03;;;1.23;;
6763;SDS011;47432;48.760;9.178;2023-03-12T13:54:19;7.70;;;1.70;;
6763;SDS011;47432;48.760;9.178;2023-03-12T13:57:28;8.03;;;1.30;;
6763;SDS011;47432;48.760;9.178;2023-03-12T13:59:58;8.73;;;1.53;;
6763;SDS011;47432;48.760;9.178;2023-03-12T14:02:44;6.80;;;1.10;;
6763;SDS011;47432;48.760;9.178;2023-03-12T14:05:18;8.83;;;1.27;;
6763;SDS011;47432;48.760;9.178;2023-03-12T14:08:07;7.60;;;1.43;;
6763;SDS011;47432;48.760;9.178;2023-03-12T14:10:47;7.20;;;1.53;;
6763;SDS011;47432;48.760;9.178;2023-03-12T14:16:48;9.57;;;1.30;;
6763;SDS011;47432;48.760;9.178;2023-03-12T14:19:22;8.50;;;1.37;;
6763;SDS011;47432;48.760;9.178;2023-03-12T14:21:51;8.77;;;1.83;;
6763;SDS011;47432;48.760;9.178;2023-03-12T14:26:54;7.60;;;1.20;;
6763;SDS011;47432;48.760;9.178;2023-03-12T14:31:56;6.50;;;0.83;;
6763;SDS011;47432;48.760;9.178;2023-03-12T14:34:29;8.60;;;1.13;;
6763;SDS011;47432;48.760;9.178;2023-03-12T14:37:14;7.63;;;1.00;;
6763;SDS011;47432;48.760;9.178;2023-03-12T14:39:51;8.30;;;1.13;;
6763;SDS011;47432;48.760;9.178;2023-03-12T14:42:21;8.60;;;1.30;;
6763;SDS011;47432;48.760;9.178;2023-03-12T14:44:54;8.17;;;1.50;;
6763;SDS011;47432;48.760;9.178;2023-03-12T14:47:43;9.67;;;1.53;;
6763;SDS011;47432;48.760;9.178;2023-03-12T14:50:20;8.40;;;1.20;;
6763;SDS011;47432;48.760;9.178;2023-03-12T14:52:52;9.23;;;1.30;;
6763;SDS011;47432;48.760;9.178;2023-03-12T14:55:20;8.77;;;1.27;;
6763;SDS011;47432;48.760;9.178;2023-03-12T14:57:48;7.27;;;1.13;;
6763;SDS011;47432;48.760;9.178;2023-03-12T15:00:38;8.03;;;1.13;;
6763;SDS011;47432;48.760;9.178;2023-03-12T15:03:04;11.17;;;1.50;;
6763;SDS011;47432;48.760;9.178;2023-03-12T15:05:46;7.17;;;0.90;;
6763;SDS011;47432;48.760;9.178;2023-03-12T15:08:13;6.90;;;1.07;;
6763;SDS011;47432;48.760;9.178;2023-03-12T15:10:39;8.60;;;1.10;;
6763;SDS011;47432;48.760;9.178;2023-03-12T15:13:11;7.37;;;0.90;;
6763;SDS011;47432;48.760;9.178;2023-03-12T15:15:40;7.90;;;1.00;;
6763;SDS011;47432;48.760;9.178;2023-03-12T15:20:47;7.60;;;1.03;;
6763;SDS011;47432;48.760;9.178;2023-03-12T15:23:14;10.23;;;1.63;;
6763;SDS011;47432;48.760;9.178;2023-03-12T15:25:42;8.40;;;1.37;;
6763;SDS011;47432;48.760;9.178;2023-03-12T15:30:37;8.47;;;1.60;;
6763;SDS011;47432;48.760;9.178;2023-03-12T15:33:11;8.20;;;1.67;;
6763;SDS011;47432;48.760;9.178;2023-03-12T15:35:41;9.00;;;1.47;;
6763;SDS011;47432;48.760;9.178;2023-03-12T15:38:24;8.47;;;1.40;;
6763;SDS011;47432;48.760;9.178;2023-03-12T15:40:50;9.07;;;1.13;;
6763;SDS011;47432;48.760;9.178;2023-03-12T15:43:20;8.60;;;1.37;;
6763;SDS011;47432;48.760;9.178;2023-03-12T15:45:47;9.97;;;1.57;;
6763;SDS011;47432;48.760;9.178;2023-03-12T15:48:35;7.70;;;1.00;;
6763;SDS011;47432;48.760;9.178;2023-03-12T15:51:13;12.17;;;2.00;;
6763;SDS011;47432;48.760;9.178;2023-03-12T15:53:59;8.80;;;1.67;;
6763;SDS011;47432;48.760;9.178;2023-03-12T15:56:37;9.13;;;1.47;;
6763;SDS011;47432;48.760;9.178;2023-03-12T15:59:18;10.27;;;1.87;;
6763;SDS011;47432;48.760;9.178;2023-03-12T16:01:51;10.30;;;1.50;;
6763;SDS011;47432;48.760;9.178;2023-03-12T16:04:18;8.03;;;1.73;;
6763;SDS011;47432;48.760;9.178;2023-03-12T16:06:45;10.30;;;1.93;;
6763;SDS011;47432;48.760;9.178;2023-03-12T16:11:46;11.13;;;1.83;;
6763;SDS011;47432;48.760;9.178;2023-03-12T16:14:14;9.63;;;2.27;;
6763;SDS011;47432;48.760;9.178;2023-03-12T16:16:48;11.37;;;2.30;;
6763;SDS011;47432;48.760;9.178;2023-03-12T16:19:16;9.40;;;1.57;;
6763;SDS011;47432;48.760;9.178;2023-03-12T16:21:44;10.10;;;1.93;;
6763;SDS011;47432;48.760;9.178;2023-03-12T16:24:11;13.00;;;2.23;;
6763;SDS011;47432;48.760;9.178;2023-03-12T16:26:53;9.37;;;1.50;;
6763;SDS011;47432;48.760;9.178;2023-03-12T16:29:21;12.90;;;3.00;;
6763;SDS011;47432;48.760;9.178;2023-03-12T16:31:59;9.30;;;1.80;;
6763;SDS011;47432;48.760;9.178;2023-03-12T16:34:26;13.70;;;2.83;;
6763;SDS011;47432;48.760;9.178;2023-03-12T16:36:52;13.00;;;3.23;;
6763;SDS011;47432;48.760;9.178;2023-03-12T16:39:18;10.20;;;2.03;;
6763;SDS011;47432;48.760;9.178;2023-03-12T16:41:47;10.37;;;1.60;;
6763;SDS011;47432;48.760;9.178;2023-03-12T16:44:14;15.10;;;2.73;;
6763;SDS011;47432;48.760;9.178;2023-03-12T16:46:44;8.27;;;1.67;;
6763;SDS011;47432;48.760;9.178;2023-03-12T16:49:12;15.97;;;3.10;;
6763;SDS011;47432;48.760;9.178;2023-03-12T16:51:40;11.77;;;2.60;;